Time;durP1;ratioP1;P1;durP2;ratioP2;P2;SDS_P1;SDS_P2;PMS_P1;PMS_P2;Temp;Humidity;BMP_temperature;BMP_pressure;BME280_temperature;BME280_humidity;BME280_pressure;Samples;Min_cycle;Max_cycle;Signal;HPM_P1;HPM_P2
2024/03/25 00:02:00;;;;;;;2.20;1.38;;;4.10;99.90;;;;;;5026151;28;20247;-76
2024/03/25 00:04:27;;;;;;;7.47;1.50;;;4.10;99.90;;;;;;5052861;28;20296;-76
2024/03/25 00:06:54;;;;;;;5.88;1.75;;;4.10;99.90;;;;;;5052253;28;20300;-76
2024/03/25 00:09:21;;;;;;;3.23;1.67;;;4.10;99.90;;;;;;5052755;28;20299;-76
2024/03/25 00:11:46;;;;;;;1.70;1.60;;;4.10;99.90;;;;;;5052413;28;20208;-76
2024/03/25 00:14:13;;;;;;;3.63;1.70;;;4.10;99.90;;;;;;5052584;28;20201;-76
2024/03/25 00:16:39;;;;;;;1.83;1.70;;;4.10;99.90;;;;;;5052867;28;20703;-76
2024/03/25 00:19:07;;;;;;;1.37;1.20;;;4.00;99.90;;;;;;5052115;28;20208;-75
2024/03/25 00:21:32;;;;;;;2.60;1.70;;;4.00;99.90;;;;;;5052453;28;20233;-76
2024/03/25 00:24:00;;;;;;;1.80;1.53;;;4.00;99.90;;;;;;5052094;28;20712;-76
2024/03/25 00:26:26;;;;;;;1.30;1.20;;;4.00;99.90;;;;;;5043900;28;20228;-75
2024/03/25 00:28:53;;;;;;;2.13;1.60;;;4.00;99.90;;;;;;5031510;28;20666;-75
2024/03/25 00:31:19;;;;;;;1.58;1.48;;;3.90;99.90;;;;;;5032175;28;20199;-75
2024/03/25 00:33:46;;;;;;;2.63;1.75;;;3.90;99.90;;;;;;5032232;28;20225;-75
2024/03/25 00:36:14;;;;;;;2.33;1.50;;;3.90;99.90;;;;;;5032333;28;20208;-75
2024/03/25 00:38:40;;;;;;;1.90;1.55;;;3.80;99.90;;;;;;5032526;28;20213;-76
2024/03/25 00:41:06;;;;;;;14.63;2.22;;;3.80;99.90;;;;;;5031786;28;20229;-76
2024/03/25 00:43:33;;;;;;;1.30;1.17;;;3.70;99.90;;;;;;5031942;28;20256;-76
2024/03/25 00:45:59;;;;;;;1.20;1.10;;;3.70;99.90;;;;;;5032013;28;20219;-76
2024/03/25 00:48:25;;;;;;;1.80;1.70;;;3.70;99.90;;;;;;5044201;28;20200;-75
2024/03/25 00:50:51;;;;;;;3.03;1.70;;;3.60;99.90;;;;;;5051733;28;20955;-75
2024/03/25 00:53:19;;;;;;;2.27;1.70;;;3.60;99.90;;;;;;5051831;28;20230;-75
2024/03/25 00:55:45;;;;;;;3.00;1.42;;;3.50;99.90;;;;;;5051933;28;20706;-75
2024/03/25 00:58:12;;;;;;;1.80;1.53;;;3.50;99.90;;;;;;5039941;28;20213;-75
2024/03/25 01:00:37;;;;;;;3.55;1.55;;;3.50;99.90;;;;;;5031650;28;20231;-75
2024/03/25 01:03:05;;;;;;;2.33;2.13;;;3.40;99.90;;;;;;5031200;28;20228;-75
2024/03/25 01:05:30;;;;;;;8.65;2.13;;;3.40;99.90;;;;;;5032206;28;20219;-75
2024/03/25 01:07:57;;;;;;;4.10;2.10;;;3.40;99.90;;;;;;5031689;28;20199;-75
2024/03/25 01:10:24;;;;;;;4.30;2.05;;;3.40;99.90;;;;;;5031384;28;20210;-75
2024/03/25 01:12:51;;;;;;;2.50;2.22;;;3.40;99.90;;;;;;5031349;28;20322;-76
2024/03/25 01:15:17;;;;;;;3.53;1.92;;;3.30;99.90;;;;;;5031712;28;20219;-75
2024/03/25 01:17:43;;;;;;;2.17;1.60;;;3.30;99.90;;;;;;5031608;28;20209;-75
2024/03/25 01:20:10;;;;;;;2.00;1.35;;;3.30;99.90;;;;;;5030630;28;20220;-75
2024/03/25 01:22:37;;;;;;;1.25;1.15;;;3.30;99.90;;;;;;5030943;28;20232;-76
2024/03/25 01:25:03;;;;;;;1.98;1.77;;;3.30;99.90;;;;;;5031312;28;20204;-76
2024/03/25 01:27:31;;;;;;;5.10;1.90;;;3.30;99.90;;;;;;5032810;28;20236;-76
2024/03/25 01:29:57;;;;;;;2.20;1.63;;;3.20;99.90;;;;;;5032626;28;20219;-76
2024/03/25 01:32:23;;;;;;;1.60;1.50;;;3.20;99.90;;;;;;5031856;28;20225;-76
2024/03/25 01:34:49;;;;;;;5.72;1.90;;;3.20;99.90;;;;;;5031038;28;20221;-75
2024/03/25 01:37:16;;;;;;;1.58;1.40;;;3.10;99.90;;;;;;5031229;28;20304;-76
2024/03/25 01:39:42;;;;;;;2.20;1.67;;;3.10;99.90;;;;;;5031198;28;20611;-76
2024/03/25 01:42:09;;;;;;;1.83;1.40;;;3.10;99.90;;;;;;5042194;28;20231;-75
2024/03/25 01:44:37;;;;;;;2.30;2.10;;;3.10;99.90;;;;;;5051483;28;20249;-75
2024/03/25 01:47:04;;;;;;;2.40;2.00;;;3.20;99.90;;;;;;5050756;28;20259;-75
2024/03/25 01:49:30;;;;;;;1.50;1.40;;;3.20;99.90;;;;;;5051783;28;20229;-76
2024/03/25 01:51:58;;;;;;;1.77;1.30;;;3.20;99.90;;;;;;5051281;28;20228;-76
2024/03/25 01:54:24;;;;;;;2.72;1.40;;;3.20;99.90;;;;;;5051315;28;20223;-75
2024/03/25 01:56:53;;;;;;;3.53;1.50;;;3.20;99.90;;;;;;5049554;28;20225;-75
2024/03/25 01:59:19;;;;;;;5.32;2.20;;;3.30;99.90;;;;;;5031106;28;20466;-76
2024/03/25 02:01:48;;;;;;;2.63;1.98;;;3.30;99.90;;;;;;5030136;28;20232;-75
2024/03/25 02:04:14;;;;;;;2.05;1.95;;;3.30;99.90;;;;;;5032865;28;20243;-74
2024/03/25 02:06:43;;;;;;;1.50;1.40;;;3.40;99.90;;;;;;5040467;28;20584;-74
2024/03/25 02:09:10;;;;;;;2.25;2.00;;;3.40;99.90;;;;;;5031091;28;20213;-74
2024/03/25 02:11:37;;;;;;;1.40;1.30;;;3.50;99.90;;;;;;5030972;28;20201;-74
2024/03/25 02:14:02;;;;;;;1.70;1.35;;;3.50;99.90;;;;;;5030749;28;20838;-74
2024/03/25 02:16:29;;;;;;;2.60;2.40;;;3.50;99.90;;;;;;5031244;28;20206;-74
2024/03/25 02:18:56;;;;;;;5.65;1.83;;;3.50;99.90;;;;;;5030970;28;20230;-74
2024/03/25 02:21:23;;;;;;;2.35;2.25;;;3.50;99.90;;;;;;5040279;28;20235;-74
2024/03/25 02:23:52;;;;;;;2.03;1.40;;;3.50;99.90;;;;;;5050480;28;20224;-74
2024/03/25 02:26:20;;;;;;;1.80;1.67;;;3.50;99.90;;;;;;5050870;28;20919;-74
2024/03/25 02:28:46;;;;;;;2.90;1.60;;;3.50;99.90;;;;;;5050804;28;20212;-74
2024/03/25 02:31:12;;;;;;;3.00;2.00;;;3.60;99.90;;;;;;5052439;28;20199;-74
2024/03/25 02:33:38;;;;;;;4.82;1.63;;;3.60;99.90;;;;;;5054584;28;20234;-74
2024/03/25 02:36:05;;;;;;;2.27;1.53;;;3.60;99.90;;;;;;5054746;28;20203;-74
2024/03/25 02:38:32;;;;;;;1.52;1.30;;;3.60;99.90;;;;;;5054820;28;20214;-74
2024/03/25 02:40:59;;;;;;;2.15;1.65;;;3.70;99.90;;;;;;5054394;28;20258;-74
2024/03/25 02:43:26;;;;;;;3.15;2.42;;;3.70;99.90;;;;;;5040309;28;20232;-74
2024/03/25 02:45:53;;;;;;;1.52;1.38;;;3.70;99.90;;;;;;5034783;28;20202;-74
2024/03/25 02:48:19;;;;;;;1.60;1.30;;;3.80;99.90;;;;;;5034555;28;20612;-74
2024/03/25 02:50:45;;;;;;;1.83;1.67;;;3.80;99.90;;;;;;5034167;28;20234;-75
2024/03/25 02:53:11;;;;;;;2.67;1.83;;;3.80;99.90;;;;;;5034158;28;20239;-76
2024/03/25 02:55:38;;;;;;;2.90;2.03;;;3.80;99.90;;;;;;5034400;28;20304;-74
2024/03/25 02:58:03;;;;;;;3.35;1.55;;;3.80;99.90;;;;;;5034338;28;20213;-75
2024/03/25 03:00:31;;;;;;;1.63;1.37;;;3.90;99.90;;;;;;5033706;28;20205;-76
2024/03/25 03:02:57;;;;;;;1.95;1.70;;;3.90;99.90;;;;;;5033876;28;21016;-75
2024/03/25 03:05:24;;;;;;;2.90;1.60;;;3.90;99.90;;;;;;5033881;28;20211;-76
2024/03/25 03:07:50;;;;;;;2.47;2.28;;;3.90;99.90;;;;;;5034145;28;20216;-76
2024/03/25 03:10:16;;;;;;;3.50;1.97;;;4.00;99.90;;;;;;5033838;28;20671;-76
2024/03/25 03:12:42;;;;;;;1.98;1.75;;;3.90;99.90;;;;;;5033828;28;20291;-75
2024/03/25 03:15:09;;;;;;;3.27;1.80;;;3.90;99.90;;;;;;5034196;28;20584;-75
2024/03/25 03:17:36;;;;;;;2.45;2.25;;;3.90;99.90;;;;;;5034172;28;20552;-76
2024/03/25 03:20:03;;;;;;;1.90;1.65;;;3.80;99.90;;;;;;5033086;28;20295;-75
2024/03/25 03:22:29;;;;;;;2.45;1.75;;;3.80;99.90;;;;;;5033163;28;20233;-75
2024/03/25 03:24:56;;;;;;;1.97;1.87;;;3.80;99.90;;;;;;5033881;28;20204;-75
2024/03/25 03:27:21;;;;;;;2.95;2.00;;;3.80;99.90;;;;;;5033888;28;20212;-75
2024/03/25 03:29:48;;;;;;;1.93;1.70;;;3.80;99.90;;;;;;5033696;28;20212;-75
2024/03/25 03:32:14;;;;;;;3.40;1.55;;;3.70;99.90;;;;;;5033107;28;20578;-75
2024/03/25 03:34:42;;;;;;;1.93;1.60;;;3.70;99.90;;;;;;5033943;28;20215;-75
2024/03/25 03:37:07;;;;;;;3.45;2.33;;;3.60;99.90;;;;;;5033669;28;20216;-75
2024/03/25 03:39:34;;;;;;;2.03;1.77;;;3.50;99.90;;;;;;5033389;28;20207;-75
2024/03/25 03:42:00;;;;;;;1.60;1.50;;;3.50;99.90;;;;;;5032271;28;20232;-76
2024/03/25 03:44:27;;;;;;;2.20;2.00;;;3.40;99.90;;;;;;5027303;28;20199;-76
2024/03/25 03:46:52;;;;;;;1.75;1.65;;;3.50;99.90;;;;;;5048509;28;20583;-75
2024/03/25 03:49:19;;;;;;;2.83;1.73;;;3.40;99.90;;;;;;5033089;28;20211;-75
2024/03/25 03:51:46;;;;;;;1.40;1.30;;;3.40;99.90;;;;;;5047414;28;20587;-75
2024/03/25 03:54:13;;;;;;;3.38;1.70;;;3.40;99.90;;;;;;5036402;28;20762;-76
2024/03/25 03:56:39;;;;;;;2.40;1.40;;;3.40;99.90;;;;;;5030202;28;20201;-76
2024/03/25 03:59:05;;;;;;;2.93;1.70;;;3.40;99.90;;;;;;5025989;28;20584;-75
2024/03/25 04:01:31;;;;;;;1.90;1.67;;;3.40;99.90;;;;;;5027144;28;20314;-75
2024/03/25 04:03:58;;;;;;;2.03;1.53;;;3.40;99.90;;;;;;5025727;28;20288;-75
2024/03/25 04:06:24;;;;;;;1.95;1.80;;;3.40;99.90;;;;;;5026346;28;20295;-75
2024/03/25 04:08:52;;;;;;;4.23;1.70;;;3.40;99.90;;;;;;5032482;28;20330;-75
2024/03/25 04:11:17;;;;;;;2.53;1.67;;;3.40;99.90;;;;;;5032172;28;20204;-76
2024/03/25 04:13:44;;;;;;;2.00;1.87;;;3.40;99.90;;;;;;5032418;28;20222;-75
2024/03/25 04:16:10;;;;;;;4.05;2.22;;;3.30;99.90;;;;;;5032845;28;20212;-75
2024/03/25 04:18:37;;;;;;;1.92;1.73;;;3.30;99.90;;;;;;5032682;28;20231;-75
2024/03/25 04:21:04;;;;;;;2.58;1.75;;;3.40;99.90;;;;;;5032194;28;20681;-76
2024/03/25 04:23:30;;;;;;;4.00;2.35;;;3.40;99.90;;;;;;5032408;28;21383;-76
2024/03/25 04:26:02;;;;;;;2.28;1.80;;;3.40;99.90;;;;;;5032839;28;20209;-75
2024/03/25 04:28:28;;;;;;;2.45;2.25;;;3.40;99.90;;;;;;5032744;28;20270;-75
2024/03/25 04:30:54;;;;;;;2.15;1.80;;;3.40;99.90;;;;;;5034308;28;20207;-76
2024/03/25 04:33:21;;;;;;;2.33;1.97;;;3.30;99.90;;;;;;5052187;28;20219;-76
2024/03/25 04:35:47;;;;;;;2.40;1.98;;;3.40;99.90;;;;;;5052433;28;20479;-75
